Time;durP1;ratioP1;P1;durP2;ratioP2;P2;SDS_P1;SDS_P2;PMS_P1;PMS_P2;Temp;Humidity;BMP_temperature;BMP_pressure;BME280_temperature;BME280_humidity;BME280_pressure;Samples;Min_cycle;Max_cycle;Signal;HPM_P1;HPM_P2
2023/04/04 00:00:24;;;;;;;6.30;1.95;;;11.70;44.70;;;;;;5983958;29;20065;-68
2023/04/04 00:03:26;;;;;;;4.15;2.13;;;11.70;44.70;;;;;;6013687;29;20034;-68
2023/04/04 00:06:27;;;;;;;4.30;2.17;;;11.80;44.70;;;;;;5997906;29;20137;-68
2023/04/04 00:09:27;;;;;;;3.70;1.90;;;11.70;44.60;;;;;;5983832;29;20121;-69
2023/04/04 00:12:28;;;;;;;2.85;2.00;;;11.80;44.70;;;;;;5997318;29;20055;-69
2023/04/04 00:15:29;;;;;;;4.57;2.30;;;11.80;44.70;;;;;;5983962;29;20030;-68
2023/04/04 00:18:31;;;;;;;3.53;1.75;;;11.90;44.60;;;;;;5983741;29;20022;-68
2023/04/04 00:21:32;;;;;;;4.10;2.40;;;11.90;44.50;;;;;;6012922;29;20062;-70
2023/04/04 00:24:33;;;;;;;3.15;1.80;;;11.90;44.50;;;;;;5982411;29;20383;-68
2023/04/04 00:27:34;;;;;;;2.45;1.58;;;11.90;44.50;;;;;;5982162;29;20416;-71
2023/04/04 00:30:35;;;;;;;6.65;2.47;;;11.90;44.50;;;;;;6012892;29;20076;-68
2023/04/04 00:33:36;;;;;;;4.53;1.85;;;11.80;44.40;;;;;;5985327;29;20031;-69
2023/04/04 00:36:37;;;;;;;3.63;1.70;;;11.80;44.50;;;;;;6019022;29;20102;-68
2023/04/04 00:39:38;;;;;;;2.35;1.77;;;11.80;44.60;;;;;;6011778;29;20112;-68
2023/04/04 00:42:39;;;;;;;2.78;2.00;;;11.80;44.60;;;;;;6009054;29;20038;-68
2023/04/04 00:45:40;;;;;;;5.28;2.58;;;11.80;44.60;;;;;;6020745;29;20042;-70
2023/04/04 00:48:42;;;;;;;4.72;1.90;;;11.80;44.60;;;;;;5983519;29;20033;-68
2023/04/04 00:51:43;;;;;;;3.17;1.85;;;11.80;44.70;;;;;;5982281;29;20030;-69
2023/04/04 00:54:44;;;;;;;2.10;1.67;;;11.80;44.70;;;;;;6011467;29;20037;-70
2023/04/04 00:57:45;;;;;;;5.82;2.35;;;11.70;44.80;;;;;;5982748;29;20027;-70
2023/04/04 01:00:46;;;;;;;3.28;2.10;;;11.70;44.80;;;;;;5996839;29;20430;-70
2023/04/04 01:03:48;;;;;;;3.13;2.15;;;11.70;44.80;;;;;;6011801;29;20030;-68
2023/04/04 01:06:49;;;;;;;2.92;2.10;;;11.70;44.80;;;;;;6011900;29;20784;-69
2023/04/04 01:09:51;;;;;;;4.50;2.53;;;11.70;44.80;;;;;;5981497;29;20026;-68
2023/04/04 01:12:52;;;;;;;4.35;2.53;;;11.70;44.90;;;;;;5997505;29;20023;-68
2023/04/04 01:15:53;;;;;;;3.03;2.30;;;11.70;44.90;;;;;;5982885;29;20094;-68
2023/04/04 01:18:55;;;;;;;21.63;2.50;;;11.60;44.90;;;;;;6011619;29;20458;-68
2023/04/04 01:22:00;;;;;;;3.13;2.15;;;11.60;44.90;;;;;;5980843;29;20126;-68
2023/04/04 01:25:03;;;;;;;2.63;1.80;;;11.60;45.00;;;;;;5981097;29;20064;-68
2023/04/04 01:28:04;;;;;;;2.80;1.92;;;11.60;45.00;;;;;;5981613;29;20038;-69
2023/04/04 01:31:08;;;;;;;3.22;2.20;;;11.50;45.10;;;;;;6016672;29;20030;-68
2023/04/04 01:34:31;;;;;;;8.80;2.35;;;11.50;45.20;;;;;;6012710;29;20038;-69
2023/04/04 01:37:43;;;;;;;7.50;2.50;;;11.50;45.20;;;;;;5984830;29;20026;-68
2023/04/04 01:40:49;;;;;;;4.85;2.67;;;11.50;45.20;;;;;;6033756;29;20173;-69
2023/04/04 01:43:51;;;;;;;4.53;2.20;;;11.40;45.20;;;;;;6017095;29;20025;-68
2023/04/04 01:46:53;;;;;;;5.30;2.88;;;11.40;45.30;;;;;;6010910;29;20099;-69
2023/04/04 01:49:55;;;;;;;4.60;2.50;;;11.40;45.20;;;;;;6010463;29;20038;-68
2023/04/04 01:52:56;;;;;;;4.95;2.53;;;11.40;45.20;;;;;;6011006;29;20480;-70
2023/04/04 01:55:57;;;;;;;4.35;1.90;;;11.30;45.10;;;;;;5980617;29;20098;-68
2023/04/04 01:58:58;;;;;;;3.28;2.05;;;11.30;45.30;;;;;;6010881;29;20038;-69
2023/04/04 02:01:59;;;;;;;10.88;2.50;;;11.30;45.30;;;;;;6010692;29;20598;-69
2023/04/04 02:05:01;;;;;;;4.15;2.13;;;11.30;45.30;;;;;;6011795;29;20494;-68
2023/04/04 02:08:02;;;;;;;9.77;2.40;;;11.30;45.30;;;;;;5984948;29;20087;-71
2023/04/04 02:11:14;;;;;;;3.72;2.42;;;11.30;45.40;;;;;;5971204;29;20042;-70
2023/04/04 02:14:15;;;;;;;3.53;2.03;;;11.30;45.40;;;;;;5984947;29;20027;-69
2023/04/04 02:17:17;;;;;;;2.22;1.85;;;11.30;45.40;;;;;;5984469;29;20030;-69
2023/04/04 02:20:18;;;;;;;2.95;2.03;;;11.30;45.40;;;;;;6000222;29;20031;-69
2023/04/04 02:23:19;;;;;;;4.20;2.47;;;11.30;45.50;;;;;;5984487;29;20098;-69
2023/04/04 02:26:20;;;;;;;4.47;2.13;;;11.30;45.40;;;;;;6015299;29;20034;-69
2023/04/04 02:29:21;;;;;;;3.75;2.22;;;11.30;45.50;;;;;;5985780;29;20030;-70
2023/04/04 02:32:23;;;;;;;4.15;2.20;;;11.30;45.50;;;;;;5986434;29;20118;-68
2023/04/04 02:35:24;;;;;;;3.97;2.38;;;11.30;45.50;;;;;;6015160;29;20039;-69
2023/04/04 02:38:26;;;;;;;3.63;2.60;;;11.30;45.50;;;;;;5995951;29;20102;-68
2023/04/04 02:41:27;;;;;;;8.10;2.40;;;11.30;45.50;;;;;;6006823;29;20125;-67
2023/04/04 02:44:28;;;;;;;7.50;2.78;;;11.30;45.50;;;;;;6002143;29;20018;-67
2023/04/04 02:47:29;;;;;;;3.90;2.60;;;11.30;45.50;;;;;;6014185;29;20510;-68
2023/04/04 02:50:30;;;;;;;5.63;2.30;;;11.20;45.50;;;;;;5983682;29;20058;-70
2023/04/04 02:53:34;;;;;;;4.60;2.03;;;11.20;45.50;;;;;;6014175;29;20041;-68
2023/04/04 02:56:47;;;;;;;4.53;2.47;;;11.20;45.60;;;;;;6014723;29;20026;-68
2023/04/04 02:59:48;;;;;;;4.95;2.65;;;11.20;45.60;;;;;;6014170;29;20086;-69
2023/04/04 03:02:58;;;;;;;4.38;2.17;;;11.20;45.60;;;;;;6014387;29;20042;-69
2023/04/04 03:06:06;;;;;;;3.28;2.50;;;11.20;45.60;;;;;;6014726;29;20353;-69
2023/04/04 03:09:07;;;;;;;5.28;2.65;;;11.20;45.70;;;;;;5984990;29;20095;-69
2023/04/04 03:12:08;;;;;;;5.00;2.40;;;11.20;45.70;;;;;;5997856;29;20703;-69
2023/04/04 03:15:09;;;;;;;5.05;2.78;;;11.20;45.70;;;;;;5997588;29;20734;-69
2023/04/04 03:18:11;;;;;;;5.82;2.63;;;11.10;45.70;;;;;;6013347;29;20034;-68
2023/04/04 03:21:12;;;;;;;2.50;1.95;;;11.10;45.80;;;;;;5998691;29;20049;-69
2023/04/04 03:24:13;;;;;;;3.65;2.45;;;11.10;45.80;;;;;;5998538;29;20069;-69
2023/04/04 03:27:13;;;;;;;5.43;2.42;;;11.10;45.80;;;;;;5983024;29;20053;-70
2023/04/04 03:30:15;;;;;;;5.75;2.83;;;11.10;45.80;;;;;;5998092;29;20039;-69
2023/04/04 03:33:16;;;;;;;5.47;2.67;;;11.10;45.80;;;;;;5983081;29;20090;-69
2023/04/04 03:36:17;;;;;;;3.50;2.47;;;11.10;45.90;;;;;;5982865;29;20129;-70
2023/04/04 03:39:27;;;;;;;4.80;2.50;;;11.10;46.00;;;;;;6000566;29;20112;-68
2023/04/04 03:42:33;;;;;;;5.88;2.90;;;11.10;46.00;;;;;;6007364;29;20360;-69
2023/04/04 03:45:34;;;;;;;4.97;2.95;;;11.00;45.90;;;;;;6022743;29;20046;-68
2023/04/04 03:48:36;;;;;;;5.18;2.90;;;11.00;46.10;;;;;;6013489;29;20604;-69
2023/04/04 03:51:40;;;;;;;7.35;2.75;;;11.00;46.10;;;;;;6015608;29;20456;-70
2023/04/04 03:54:41;;;;;;;5.13;2.20;;;11.00;46.10;;;;;;6005395;29;20026;-68
2023/04/04 03:57:42;;;;;;;4.90;2.78;;;11.00;46.10;;;;;;6004830;29;20045;-69
2023/04/04 04:00:45;;;;;;;3.67;2.25;;;11.00;46.00;;;;;;6005112;29;20041;-68
2023/04/04 04:03:46;;;;;;;3.92;2.63;;;10.90;46.00;;;;;;6022713;29;20124;-69
2023/04/04 04:06:47;;;;;;;6.85;2.80;;;10.90;46.00;;;;;;6012783;29;20117;-69
2023/04/04 04:09:48;;;;;;;4.13;2.58;;;10.90;46.10;;;;;;5983287;29;20456;-70
2023/04/04 04:12:49;;;;;;;3.55;2.33;;;10.90;46.10;;;;;;6013034;29;20053;-68
2023/04/04 04:15:53;;;;;;;4.50;2.50;;;10.90;46.20;;;;;;5997749;29;20476;-67
2023/04/04 04:18:56;;;;;;;4.00;2.70;;;10.80;46.20;;;;;;5981898;29;20033;-69
2023/04/04 04:22:07;;;;;;;3.35;2.35;;;10.80;46.30;;;;;;5982520;29;20436;-68
2023/04/04 04:25:08;;;;;;;4.35;2.55;;;10.80;46.30;;;;;;5983371;29;20060;-70
2023/04/04 04:28:09;;;;;;;6.72;2.70;;;10.80;46.30;;;;;;5984274;29;20046;-68
2023/04/04 04:31:10;;;;;;;5.13;3.25;;;10.80;46.40;;;;;;5989423;29;20030;-69
2023/04/04 04:34:22;;;;;;;3.17;2.42;;;10.80;46.40;;;;;;6014588;29;20034;-69
2023/04/04 04:37:24;;;;;;;7.40;3.03;;;10.80;46.30;;;;;;5986886;29;20018;-69
2023/04/04 04:40:28;;;;;;;4.90;3.08;;;10.80;46.40;;;;;;6006268;29;20060;-69
2023/04/04 04:43:36;;;;;;;3.75;2.42;;;10.80;46.30;;;;;;6045439;29;20038;-68
2023/04/04 04:46:37;;;;;;;4.28;2.97;;;10.80;46.30;;;;;;6017772;29;20527;-69
2023/04/04 04:49:48;;;;;;;;;;;10.90;46.40;;;;;;6013014;29;20038;-68
2023/04/04 04:52:51;;;;;;;6.50;2.55;;;10.90;46.40;;;;;;6012240;29;19924;-71
2023/04/04 04:55:52;;;;;;;5.22;3.40;;;10.80;46.20;;;;;;6012364;29;20034;-71
2023/04/04 04:58:54;;;;;;;2.88;2.10;;;10.80;46.30;;;;;;6012155;29;20183;-69
2023/04/04 05:01:58;;;;;;;5.97;2.85;;;10.80;46.30;;;;;;5996618;29;20034;-69
2023/04/04 05:05:00;;;;;;;5.32;2.60;;;10.70;46.40;;;;;;6011930;29;20041;-69
2023/04/04 05:08:03;;;;;;;4.53;2.90;;;10.70;46.50;;;;;;5981565;29;20113;-69
2023/04/04 05:11:04;;;;;;;6.63;2.90;;;10.60;46.50;;;;;;6011283;29;20083;-68
2023/04/04 05:14:05;;;;;;;3.63;2.05;;;10.60;46.60;;;;;;5980925;29;20026;-69
2023/04/04 05:17:11;;;;;;;5.22;2.75;;;10.60;46.70;;;;;;6011557;29;20041;-69
2023/04/04 05:20:12;;;;;;;5.22;2.47;;;10.50;46.70;;;;;;6011594;29;20030;-69
2023/04/04 05:23:14;;;;;;;5.28;3.08;;;10.50;46.70;;;;;;5980907;29;20090;-70
2023/04/04 05:26:16;;;;;;;8.43;3.17;;;10.50;46.80;;;;;;6011853;29;20491;-68
2023/04/04 05:29:18;;;;;;;4.65;2.88;;;10.50;46.80;;;;;;5981110;29;20037;-68
2023/04/04 05:32:22;;;;;;;4.65;2.58;;;10.40;46.80;;;;;;5981404;29;20042;-68
2023/04/04 05:35:32;;;;;;;5.03;2.50;;;10.40;46.90;;;;;;6012269;29;20698;-69
2023/04/04 05:38:33;;;;;;;5.40;2.78;;;10.40;47.00;;;;;;5980485;29;20098;-69
2023/04/04 05:41:34;;;;;;;6.20;2.80;;;10.40;47.00;;;;;;5982711;29;20034;-69
2023/04/04 05:44:43;;;;;;;4.25;2.35;;;10.40;47.00;;;;;;6003646;29;20447;-68
2023/04/04 05:47:44;;;;;;;4.65;2.80;;;10.50;46.90;;;;;;5988288;29;20118;-68
2023/04/04 05:50:46;;;;;;;4.95;2.92;;;10.50;46.80;;;;;;5988631;29;20039;-69
2023/04/04 05:53:47;;;;;;;4.97;2.58;;;10.50;46.80;;;;;;6006251;29;20050;-69
2023/04/04 05:56:53;;;;;;;2.40;1.98;;;10.50;46.80;;;;;;6010642;29;20033;-68
2023/04/04 06:00:18;;;;;;;4.32;2.28;;;10.50;46.80;;;;;;6010472;29;20117;-69
2023/04/04 06:03:23;;;;;;;6.30;3.10;;;10.50;46.70;;;;;;6010508;29;20035;-70
2023/04/04 06:06:26;;;;;;;4.18;2.25;;;10.50;46.60;;;;;;5980174;29;20082;-71
2023/04/04 06:09:27;;;;;;;11.90;2.35;;;10.50;46.70;;;;;;6010163;29;20075;-69
2023/04/04 06:12:28;;;;;;;5.28;2.63;;;10.50;46.60;;;;;;5996762;29;20120;-68
2023/04/04 06:15:30;;;;;;;5.07;2.80;;;10.50;46.60;;;;;;6033372;29;20053;-69
2023/04/04 06:18:30;;;;;;;5.53;2.83;;;10.50;46.50;;;;;;6002305;29;20026;-68
2023/04/04 06:21:32;;;;;;;4.93;2.78;;;10.50;46.50;;;;;;6033276;29;20048;-69
2023/04/04 06:24:33;;;;;;;2.97;2.30;;;10.60;46.50;;;;;;6032882;29;20065;-70
2023/04/04 06:27:34;;;;;;;4.35;2.25;;;10.60;46.40;;;;;;6002356;29;20158;-70
2023/04/04 06:30:36;;;;;;;7.15;2.72;;;10.50;46.30;;;;;;6018370;29;20351;-69
2023/04/04 06:33:39;;;;;;;5.30;2.80;;;10.50;46.20;;;;;;6033902;29;20208;-70
2023/04/04 06:36:40;;;;;;;5.82;3.15;;;10.50;46.30;;;;;;6033700;29;20034;-70
2023/04/04 06:39:40;;;;;;;3.10;2.40;;;10.30;46.20;;;;;;6013099;29;20034;-68
2023/04/04 06:42:53;;;;;;;5.25;2.97;;;10.40;46.30;;;;;;6010637;29;20094;-69
2023/04/04 06:45:58;;;;;;;7.10;2.38;;;10.40;46.30;;;;;;5972975;29;20526;-70
2023/04/04 06:48:59;;;;;;;6.78;2.78;;;10.50;46.30;;;;;;5997491;29;20037;-70
2023/04/04 06:52:00;;;;;;;3.88;2.35;;;10.50;46.10;;;;;;6012413;29;20038;-68
2023/04/04 06:55:01;;;;;;;4.10;2.42;;;10.50;46.00;;;;;;6014744;29;20045;-69
2023/04/04 06:58:01;;;;;;;6.57;2.50;;;10.50;45.90;;;;;;6014057;29;20033;-70
2023/04/04 07:01:02;;;;;;;4.82;2.63;;;10.50;46.00;;;;;;6013974;29;20042;-68
2023/04/04 07:04:03;;;;;;;5.75;2.65;;;10.50;46.00;;;;;;5999081;29;20034;-68
2023/04/04 07:07:04;;;;;;;7.55;2.92;;;10.50;46.00;;;;;;5983375;29;20034;-69
2023/04/04 07:10:06;;;;;;;5.22;2.10;;;10.40;45.90;;;;;;5984992;29;20042;-69
2023/04/04 07:13:07;;;;;;;4.00;2.38;;;10.40;45.90;;;;;;6020864;29;20030;-69
2023/04/04 07:16:08;;;;;;;8.23;2.92;;;10.30;45.90;;;;;;6006504;29;20045;-70
2023/04/04 07:19:08;;;;;;;2.70;2.25;;;10.30;46.10;;;;;;6037172;29;20116;-68
2023/04/04 07:22:09;;;;;;;7.80;2.42;;;10.30;46.10;;;;;;6006372;29;20107;-70
2023/04/04 07:25:12;;;;;;;6.03;2.47;;;10.30;46.10;;;;;;6007387;29;20167;-69
2023/04/04 07:28:12;;;;;;;3.35;2.40;;;10.40;46.20;;;;;;6013075;29;20032;-70
2023/04/04 07:31:13;;;;;;;4.18;2.50;;;10.40;46.20;;;;;;6010153;29;20029;-68
2023/04/04 07:34:14;;;;;;;6.35;2.53;;;10.60;46.20;;;;;;6021316;29;20030;-67
2023/04/04 07:37:15;;;;;;;6.25;2.60;;;10.70;45.90;;;;;;6005499;29;20041;-69
2023/04/04 07:40:17;;;;;;;5.50;3.10;;;10.80;45.60;;;;;;5984492;29;20120;-69
2023/04/04 07:43:18;;;;;;;6.43;2.30;;;10.80;45.40;;;;;;5985056;29;20031;-70
2023/04/04 07:46:19;;;;;;;4.10;2.13;;;10.90;45.40;;;;;;5984416;29;20082;-68
2023/04/04 07:49:20;;;;;;;3.78;2.42;;;11.00;45.40;;;;;;6013541;29;20113;-69
2023/04/04 07:52:21;;;;;;;7.53;2.83;;;11.10;45.20;;;;;;6013237;29;20457;-70
2023/04/04 07:55:24;;;;;;;3.00;2.25;;;11.10;45.10;;;;;;5997606;29;20049;-69
2023/04/04 07:58:25;;;;;;;4.78;2.75;;;11.20;44.90;;;;;;6012650;29;20030;-69
2023/04/04 08:01:25;;;;;;;5.60;2.13;;;11.20;44.80;;;;;;5983530;29;20461;-68
2023/04/04 08:04:26;;;;;;;3.80;2.60;;;11.30;44.70;;;;;;6011633;29;20092;-69
2023/04/04 08:07:27;;;;;;;6.15;2.72;;;11.30;44.50;;;;;;6012698;29;20038;-69
2023/04/04 08:10:28;;;;;;;3.78;2.47;;;11.30;44.40;;;;;;5983632;29;20424;-69
2023/04/04 08:13:32;;;;;;;3.65;2.35;;;11.30;44.20;;;;;;6004747;29;20033;-70
2023/04/04 08:16:33;;;;;;;3.47;2.08;;;11.30;44.10;;;;;;6006496;29;20085;-70
2023/04/04 08:19:34;;;;;;;3.72;2.15;;;11.30;44.10;;;;;;6004188;29;20078;-69
2023/04/04 08:22:35;;;;;;;3.97;2.20;;;11.30;44.10;;;;;;6020191;29;20360;-69
2023/04/04 08:25:35;;;;;;;4.68;2.67;;;11.30;44.10;;;;;;6005734;29;20324;-70
2023/04/04 08:28:37;;;;;;;5.60;2.75;;;11.30;44.00;;;;;;6005293;29;20026;-68
2023/04/04 08:31:39;;;;;;;5.80;2.60;;;11.30;43.80;;;;;;6005499;29;20048;-70
2023/04/04 08:34:41;;;;;;;7.20;2.85;;;11.30;43.80;;;;;;6004115;29;20046;-70
2023/04/04 08:37:45;;;;;;;5.63;1.83;;;11.30;43.90;;;;;;5998736;29;20056;-70
2023/04/04 08:40:46;;;;;;;4.00;2.40;;;11.40;43.80;;;;;;5982945;29;20026;-69
2023/04/04 08:43:53;;;;;;;3.13;2.22;;;11.50;43.80;;;;;;6011588;29;20038;-70
2023/04/04 08:46:55;;;;;;;4.40;2.17;;;11.60;43.70;;;;;;5982746;29;20429;-70
2023/04/04 08:49:59;;;;;;;5.43;2.42;;;11.70;43.60;;;;;;5982574;29;20083;-68
2023/04/04 08:53:03;;;;;;;4.03;2.60;;;11.70;43.40;;;;;;5982349;29;20042;-69
2023/04/04 08:56:05;;;;;;;5.28;3.13;;;11.70;43.30;;;;;;6011125;29;20187;-69
2023/04/04 08:59:05;;;;;;;4.03;2.45;;;11.70;43.30;;;;;;5980856;29;20034;-70
2023/04/04 09:02:10;;;;;;;6.43;2.80;;;11.80;43.20;;;;;;5980700;29;20073;-70
2023/04/04 09:05:12;;;;;;;3.75;2.30;;;11.80;43.10;;;;;;5982243;29;20398;-69
2023/04/04 09:08:15;;;;;;;12.50;2.60;;;11.80;43.20;;;;;;6011315;29;20040;-70
2023/04/04 09:11:18;;;;;;;7.20;2.85;;;11.80;43.00;;;;;;6011058;29;20035;-68
2023/04/04 09:14:20;;;;;;;6.03;2.92;;;11.70;43.00;;;;;;5982447;29;20027;-70
2023/04/04 09:17:21;;;;;;;4.18;2.30;;;11.80;43.10;;;;;;5982322;29;20030;-69
2023/04/04 09:20:40;;;;;;;6.15;2.72;;;11.80;43.10;;;;;;5982354;29;20045;-71
2023/04/04 09:23:42;;;;;;;4.20;2.58;;;11.80;43.10;;;;;;5982657;29;20034;-69
2023/04/04 09:26:48;;;;;;;4.40;2.30;;;11.90;43.00;;;;;;5982447;29;20095;-70
2023/04/04 09:29:48;;;;;;;5.35;3.05;;;11.90;42.90;;;;;;5982110;29;20030;-70
2023/04/04 09:32:50;;;;;;;5.43;2.55;;;12.00;42.80;;;;;;5982176;29;20073;-70
2023/04/04 09:35:58;;;;;;;7.13;2.75;;;12.00;42.70;;;;;;5980483;29;20658;-68
2023/04/04 09:38:59;;;;;;;6.20;3.00;;;12.00;42.50;;;;;;6025225;29;20443;-70
2023/04/04 09:42:00;;;;;;;5.90;2.60;;;12.10;42.50;;;;;;6004866;29;20034;-71
2023/04/04 09:45:01;;;;;;;7.47;2.40;;;12.10;42.50;;;;;;5995384;29;20084;-70
2023/04/04 09:48:02;;;;;;;7.28;2.30;;;12.10;42.50;;;;;;5995163;29;20038;-70
2023/04/04 09:51:05;;;;;;;4.80;2.55;;;12.10;42.30;;;;;;6011139;29;20303;-69
2023/04/04 09:54:09;;;;;;;4.00;2.20;;;12.10;42.10;;;;;;5982064;29;20037;-69
2023/04/04 09:57:11;;;;;;;5.03;2.40;;;12.10;42.20;;;;;;5981707;29;20090;-70
2023/04/04 10:00:18;;;;;;;3.47;2.00;;;12.20;42.10;;;;;;5980041;29;20091;-68
2023/04/04 10:03:22;;;;;;;4.28;2.83;;;12.30;42.10;;;;;;6010519;29;20038;-69
2023/04/04 10:06:23;;;;;;;10.15;2.50;;;12.30;41.90;;;;;;5980548;29;20049;-69
2023/04/04 10:09:24;;;;;;;3.72;2.30;;;12.30;41.90;;;;;;5982043;29;20105;-70
2023/04/04 10:12:25;;;;;;;6.20;2.00;;;12.20;42.60;;;;;;6010516;29;20035;-69
2023/04/04 10:15:36;;;;;;;5.80;3.15;;;12.20;41.90;;;;;;5980303;29;20112;-70
2023/04/04 10:18:36;;;;;;;10.48;3.28;;;12.30;42.00;;;;;;6011317;29;20341;-69
2023/04/04 10:21:37;;;;;;;7.70;3.10;;;12.30;41.70;;;;;;5982761;29;20034;-69
2023/04/04 10:24:39;;;;;;;5.60;2.40;;;12.30;41.80;;;;;;5985333;29;20106;-69
2023/04/04 10:27:40;;;;;;;4.80;2.63;;;12.40;41.80;;;;;;5987517;29;20109;-69
2023/04/04 10:30:56;;;;;;;11.95;3.78;;;12.50;41.80;;;;;;5986381;29;20064;-70
2023/04/04 10:34:06;;;;;;;7.03;3.55;;;12.60;41.60;;;;;;6015362;29;20034;-70
2023/04/04 10:37:11;;;;;;;5.45;2.58;;;12.60;41.50;;;;;;5985860;29;20026;-69
2023/04/04 10:40:16;;;;;;;10.77;4.43;;;12.70;41.40;;;;;;6008029;29;20026;-69
2023/04/04 10:43:22;;;;;;;6.55;3.17;;;12.80;41.30;;;;;;6008964;29;20037;-69
2023/04/04 10:46:29;;;;;;;5.50;2.88;;;12.90;41.20;;;;;;5987705;29;20057;-69
2023/04/04 10:49:31;;;;;;;4.57;2.13;;;13.00;41.00;;;;;;5999159;29;20053;-71
2023/04/04 10:52:33;;;;;;;6.47;2.80;;;13.10;40.70;;;;;;6015245;29;20388;-69
2023/04/04 10:55:35;;;;;;;7.82;3.25;;;13.20;40.60;;;;;;5985385;29;20061;-70
2023/04/04 10:58:42;;;;;;;4.90;2.80;;;13.20;40.70;;;;;;5984389;29;20034;-69
2023/04/04 11:01:58;;;;;;;8.80;3.20;;;13.20;40.50;;;;;;5984746;29;20117;-70
2023/04/04 11:05:14;;;;;;;18.13;4.90;;;13.30;40.50;;;;;;6014131;29;20034;-72
2023/04/04 11:08:36;;;;;;;7.50;3.13;;;13.30;40.30;;;;;;5984683;29;20080;-69
2023/04/04 11:12:06;;;;;;;16.55;5.38;;;13.30;40.30;;;;;;5993665;29;20105;-69
2023/04/04 11:15:09;;;;;;;6.30;3.75;;;13.20;40.30;;;;;;6005920;29;20064;-69
2023/04/04 11:18:12;;;;;;;10.82;3.33;;;13.20;40.40;;;;;;6007089;29;20172;-70
2023/04/04 11:21:26;;;;;;;12.00;3.25;;;13.20;40.50;;;;;;6007402;29;20202;-70
2023/04/04 11:24:27;;;;;;;3.50;2.22;;;13.30;40.30;;;;;;6007517;29;20058;-70
2023/04/04 11:27:29;;;;;;;6.22;2.60;;;13.30;40.20;;;;;;6007003;29;20033;-69
2023/04/04 11:30:30;;;;;;;14.52;5.10;;;13.30;40.30;;;;;;5994610;29;20042;-70
2023/04/04 11:33:31;;;;;;;13.93;3.35;;;13.40;40.30;;;;;;5984269;29;20058;-69
2023/04/04 11:36:39;;;;;;;5.40;2.75;;;13.40;40.20;;;;;;5982750;29;20056;-71
2023/04/04 11:39:56;;;;;;;8.73;3.13;;;13.40;40.10;;;;;;6004494;29;20681;-69
2023/04/04 11:43:02;;;;;;;5.88;2.65;;;13.40;40.00;;;;;;5985081;29;20034;-70
2023/04/04 11:46:07;;;;;;;6.20;3.00;;;13.50;40.00;;;;;;5966449;29;20043;-68
2023/04/04 11:49:09;;;;;;;6.13;3.33;;;13.40;39.90;;;;;;5972321;29;20034;-69
2023/04/04 11:52:14;;;;;;;6.97;4.10;;;13.40;40.00;;;;;;5984160;29;20034;-69
2023/04/04 11:55:20;;;;;;;5.90;3.00;;;13.40;40.00;;;;;;5983802;29;20698;-70
2023/04/04 11:58:21;;;;;;;6.43;2.97;;;13.50;40.00;;;;;;5983414;29;20031;-69
2023/04/04 12:01:22;;;;;;;5.90;3.15;;;13.60;39.90;;;;;;5983720;29;20124;-70
2023/04/04 12:04:24;;;;;;;5.25;2.72;;;13.60;39.80;;;;;;5983591;29;20203;-69
2023/04/04 12:07:28;;;;;;;10.35;3.05;;;13.70;39.80;;;;;;5982265;29;20061;-68
2023/04/04 12:10:33;;;;;;;14.48;4.45;;;13.70;39.80;;;;;;6012282;29;20357;-69
2023/04/04 12:13:40;;;;;;;6.00;2.83;;;13.80;39.80;;;;;;5982557;29;20325;-70
2023/04/04 12:16:43;;;;;;;5.90;3.00;;;13.90;39.80;;;;;;5983518;29;20514;-68
2023/04/04 12:19:44;;;;;;;6.90;3.17;;;14.00;39.50;;;;;;5981411;29;20034;-68
2023/04/04 12:22:49;;;;;;;9.65;3.40;;;14.00;39.50;;;;;;5983527;29;20053;-70
2023/04/04 12:25:53;;;;;;;8.50;4.32;;;14.10;39.30;;;;;;5982031;29;20038;-70
2023/04/04 12:28:58;;;;;;;9.48;4.97;;;14.20;39.10;;;;;;6011894;29;20034;-70
2023/04/04 12:31:59;;;;;;;5.72;3.25;;;14.20;38.90;;;;;;5983347;29;20031;-70
2023/04/04 12:35:01;;;;;;;7.70;3.88;;;14.10;39.00;;;;;;5983327;29;20102;-68
2023/04/04 12:38:09;;;;;;;8.75;3.28;;;14.00;38.90;;;;;;5990467;29;20074;-69
2023/04/04 12:41:18;;;;;;;14.95;4.53;;;14.00;39.10;;;;;;6005488;29;20042;-69
2023/04/04 12:44:36;;;;;;;8.40;3.50;;;13.90;39.20;;;;;;5999264;29;20030;-69
2023/04/04 12:47:38;;;;;;;7.45;3.40;;;14.00;39.30;;;;;;5996405;29;20762;-68
2023/04/04 12:50:56;;;;;;;5.15;2.83;;;14.00;39.10;;;;;;5982094;29;20033;-69
2023/04/04 12:53:58;;;;;;;7.27;3.37;;;14.00;39.00;;;;;;5982744;29;20120;-71
2023/04/04 12:57:04;;;;;;;6.22;2.70;;;14.00;39.10;;;;;;5982505;29;20091;-70
2023/04/04 13:00:07;;;;;;;4.40;2.55;;;14.00;39.20;;;;;;5982282;29;20038;-69
2023/04/04 13:03:08;;;;;;;5.93;2.72;;;14.10;39.00;;;;;;6011771;29;20030;-71
2023/04/04 13:06:14;;;;;;;9.18;3.33;;;14.20;38.80;;;;;;5982774;29;20336;-68
2023/04/04 13:09:21;;;;;;;8.25;4.15;;;14.20;38.70;;;;;;6012097;29;20034;-70
2023/04/04 13:12:22;;;;;;;5.22;2.85;;;14.20;38.50;;;;;;6028680;29;20034;-70
2023/04/04 13:15:50;;;;;;;10.85;2.90;;;14.20;38.40;;;;;;6004743;29;20046;-70
2023/04/04 13:18:51;;;;;;;7.15;2.97;;;14.20;38.40;;;;;;6007756;29;20030;-70
2023/04/04 13:21:53;;;;;;;7.03;2.88;;;14.30;38.50;;;;;;6001865;29;20118;-70
2023/04/04 13:24:53;;;;;;;19.63;3.60;;;14.90;38.00;;;;;;5996326;29;20147;-70
2023/04/04 13:27:54;;;;;;;9.50;3.28;;;16.50;36.00;;;;;;6011048;29;20060;-69
2023/04/04 13:30:56;;;;;;;6.72;3.42;;;18.00;33.90;;;;;;6011230;29;20046;-71
2023/04/04 13:33:57;;;;;;;6.85;3.20;;;19.50;31.80;;;;;;5982698;29;20044;-69
2023/04/04 13:36:57;;;;;;;5.93;3.47;;;21.10;30.00;;;;;;5982299;29;20031;-70
2023/04/04 13:39:58;;;;;;;5.07;2.53;;;22.50;28.50;;;;;;6033389;29;20056;-70
2023/04/04 13:42:59;;;;;;;8.55;3.25;;;23.60;27.20;;;;;;6012010;29;20030;-70
2023/04/04 13:46:00;;;;;;;8.43;4.05;;;24.30;26.00;;;;;;5972893;29;20035;-70
2023/04/04 13:49:02;;;;;;;6.72;3.15;;;24.80;25.10;;;;;;5959132;29;20054;-69
2023/04/04 13:52:03;;;;;;;5.63;3.08;;;24.80;24.90;;;;;;5959476;29;20092;-68
2023/04/04 13:55:05;;;;;;;7.22;3.50;;;24.10;25.40;;;;;;5973119;29;20043;-69
2023/04/04 13:58:07;;;;;;;4.90;2.83;;;23.30;26.10;;;;;;5957616;29;20070;-70
2023/04/04 14:01:08;;;;;;;4.53;2.50;;;22.50;26.70;;;;;;5958143;29;20429;-68
2023/04/04 14:04:08;;;;;;;8.10;2.67;;;21.80;27.50;;;;;;6004138;29;20149;-69
2023/04/04 14:07:11;;;;;;;6.85;3.08;;;21.40;27.80;;;;;;5981108;29;20055;-70
2023/04/04 14:10:11;;;;;;;5.95;3.10;;;21.00;28.00;;;;;;5981287;29;20030;-70
2023/04/04 14:13:13;;;;;;;5.88;3.22;;;20.50;28.30;;;;;;5979844;29;20094;-70
2023/04/04 14:16:15;;;;;;;6.03;2.65;;;20.00;28.60;;;;;;5981265;29;20109;-69
2023/04/04 14:19:16;;;;;;;3.92;2.67;;;19.70;29.20;;;;;;5981418;29;20125;-70
2023/04/04 14:22:16;;;;;;;4.90;2.80;;;19.40;29.40;;;;;;5981511;29;20670;-68
2023/04/04 14:25:17;;;;;;;5.53;2.75;;;19.20;29.40;;;;;;5994751;29;20053;-70
2023/04/04 14:28:18;;;;;;;4.18;2.28;;;18.90;29.70;;;;;;5979553;29;20154;-70
2023/04/04 14:31:19;;;;;;;3.88;2.25;;;18.50;29.70;;;;;;6009999;29;20403;-70
2023/04/04 14:34:20;;;;;;;5.43;2.38;;;18.20;29.90;;;;;;6010197;29;20061;-71
2023/04/04 14:37:21;;;;;;;4.38;2.30;;;17.80;30.20;;;;;;6012411;29;20230;-69
2023/04/04 14:40:22;;;;;;;6.90;2.67;;;17.50;30.70;;;;;;6002407;29;20033;-68
2023/04/04 14:43:23;;;;;;;4.35;2.80;;;17.20;31.10;;;;;;6004234;29;20026;-70
2023/04/04 14:46:24;;;;;;;5.22;2.65;;;16.90;31.50;;;;;;5983158;29;20048;-71
2023/04/04 14:49:26;;;;;;;6.10;3.03;;;16.80;32.00;;;;;;5981184;29;20129;-69
2023/04/04 14:52:28;;;;;;;4.22;2.58;;;16.70;32.30;;;;;;5979514;29;20377;-69
2023/04/04 14:55:29;;;;;;;5.57;2.55;;;16.70;32.40;;;;;;5980891;29;20019;-70
2023/04/04 14:58:30;;;;;;;5.65;2.50;;;16.60;32.50;;;;;;6009458;29;20038;-71
2023/04/04 15:01:31;;;;;;;3.85;2.10;;;16.50;32.60;;;;;;5994468;29;20034;-69
2023/04/04 15:04:32;;;;;;;7.00;2.50;;;16.50;33.30;;;;;;5980594;29;20034;-71
2023/04/04 15:07:33;;;;;;;4.22;2.42;;;16.50;32.70;;;;;;5980539;29;20034;-70
2023/04/04 15:10:34;;;;;;;3.70;2.58;;;16.50;32.70;;;;;;5982754;29;20045;-68
2023/04/04 15:13:35;;;;;;;5.90;2.40;;;16.40;32.80;;;;;;6005989;29;20059;-69
2023/04/04 15:16:37;;;;;;;2.63;2.10;;;16.30;33.00;;;;;;5987045;29;20095;-69
2023/04/04 15:19:37;;;;;;;2.60;1.90;;;16.20;33.10;;;;;;6013400;29;20099;-69
2023/04/04 15:22:40;;;;;;;6.30;2.42;;;16.30;33.10;;;;;;6013555;29;20038;-70
2023/04/04 15:25:41;;;;;;;3.67;2.22;;;16.30;32.90;;;;;;5984359;29;20118;-69
2023/04/04 15:28:41;;;;;;;5.18;2.63;;;16.40;32.90;;;;;;5983525;29;20030;-70
2023/04/04 15:31:42;;;;;;;4.55;2.28;;;16.60;32.80;;;;;;5983668;29;20030;-70
2023/04/04 15:34:43;;;;;;;5.45;2.47;;;16.70;32.60;;;;;;6012715;29;20053;-71
2023/04/04 15:37:44;;;;;;;3.45;2.33;;;16.80;32.60;;;;;;5989024;29;20603;-69
2023/04/04 15:40:45;;;;;;;2.72;1.95;;;17.00;32.40;;;;;;6004984;29;20066;-70
2023/04/04 15:43:46;;;;;;;6.43;2.92;;;17.00;32.20;;;;;;6006411;29;20539;-69
2023/04/04 15:46:47;;;;;;;7.07;2.35;;;16.90;32.10;;;;;;5984002;29;20030;-71
2023/04/04 15:49:48;;;;;;;6.50;2.17;;;16.90;32.20;;;;;;5983796;29;20095;-70